Time;durP1;ratioP1;P1;durP2;ratioP2;P2;SDS_P1;SDS_P2;PMS_P1;PMS_P2;Temp;Humidity;BMP_temperature;BMP_pressure;BME280_temperature;BME280_humidity;BME280_pressure;Samples;Min_cycle;Max_cycle;Signal;HPM_P1;HPM_P2
2021/07/27 00:02:23;;;;;;;0.10;0.10;;;;;;;18.63;64.86;100229.06;4993628;28;20027;-85
2021/07/27 00:04:50;;;;;;;0.10;0.10;;;;;;;18.57;64.58;100219.69;4997669;28;20038;-85
2021/07/27 00:07:17;;;;;;;0.10;0.10;;;;;;;18.52;64.69;100223.00;4996639;28;20031;-83
2021/07/27 00:09:44;;;;;;;0.10;0.10;;;;;;;18.47;65.20;100230.97;5040945;23;20042;-83
2021/07/27 00:12:10;;;;;;;0.10;0.10;;;;;;;18.42;64.94;100222.44;5013458;28;20026;-84
2021/07/27 00:14:36;;;;;;;0.10;0.10;;;;;;;18.43;65.49;100228.75;4981082;28;20150;-84
2021/07/27 00:17:03;;;;;;;0.10;0.10;;;;;;;18.38;65.67;100220.28;4976637;28;20071;-82
2021/07/27 00:19:29;;;;;;;0.10;0.10;;;;;;;18.38;65.31;100226.59;4964040;28;20043;-82
2021/07/27 00:21:55;;;;;;;0.10;0.10;;;;;;;18.36;65.45;100227.84;4948060;29;20039;-84
2021/07/27 00:24:25;;;;;;;0.10;0.10;;;;;;;18.36;65.80;100233.31;4943584;29;20053;-83
2021/07/27 00:26:54;;;;;;;0.10;0.10;;;;;;;18.33;65.81;100228.22;4959190;28;20118;-84
2021/07/27 00:29:22;;;;;;;0.10;0.10;;;;;;;18.27;65.91;100227.91;4952050;29;20043;-80
2021/07/27 00:31:49;;;;;;;0.10;0.10;;;;;;;18.22;65.78;100227.63;4964367;28;20042;-83
2021/07/27 00:34:16;;;;;;;0.10;0.10;;;;;;;18.16;66.11;100230.25;4980699;28;20051;-81
2021/07/27 00:36:42;;;;;;;0.10;0.10;;;;;;;18.15;66.16;100231.31;4962431;28;20390;-82
2021/07/27 00:39:08;;;;;;;0.10;0.10;;;;;;;18.10;66.42;100228.25;4992554;28;20173;-83
2021/07/27 00:41:34;;;;;;;0.10;0.10;;;;;;;18.07;66.48;100227.59;4943703;28;20039;-82
2021/07/27 00:44:00;;;;;;;0.10;0.10;;;;;;;18.05;66.39;100235.13;4953026;28;20105;-83
2021/07/27 00:46:27;;;;;;;0.10;0.10;;;;;;;17.98;65.86;100241.53;4921979;29;20560;-84
2021/07/27 00:48:53;;;;;;;0.10;0.10;;;;;;;17.95;65.93;100242.78;4957981;28;20074;-84
2021/07/27 00:51:19;;;;;;;0.10;0.10;;;;;;;17.94;66.92;100245.69;4951387;28;20095;-84
2021/07/27 00:53:46;;;;;;;0.10;0.10;;;;;;;17.89;66.94;100232.56;4955066;28;20100;-83
2021/07/27 00:56:12;;;;;;;0.10;0.10;;;;;;;17.86;67.54;100232.09;4948458;28;20083;-83
2021/07/27 00:58:39;;;;;;;0.00;0.00;;;;;;;17.85;67.20;100233.97;4949941;29;20070;-83
2021/07/27 01:01:06;;;;;;;0.10;0.10;;;;;;;17.81;66.20;100232.66;4936327;28;20078;-83
2021/07/27 01:03:34;;;;;;;0.10;0.10;;;;;;;17.76;66.92;100227.69;4940986;28;20512;-82
2021/07/27 01:06:00;;;;;;;0.10;0.10;;;;;;;17.71;67.06;100232.84;4962036;28;20045;-84
2021/07/27 01:08:26;;;;;;;0.10;0.10;;;;;;;17.69;67.62;100236.78;4947501;29;20506;-83
2021/07/27 01:10:53;;;;;;;0.10;0.10;;;;;;;17.66;67.73;100231.69;4968425;28;20042;-83
2021/07/27 01:13:19;;;;;;;0.10;0.10;;;;;;;17.59;67.94;100231.59;4950426;29;20043;-83
2021/07/27 01:15:45;;;;;;;0.10;0.10;;;;;;;17.56;67.97;100232.78;4931247;29;20168;-84
2021/07/27 01:18:17;;;;;;;0.10;0.10;;;;;;;17.52;68.39;100220.53;4933595;29;20046;-81
2021/07/27 01:37:42;;;;;;;0.10;0.10;;;;;;;17.29;69.56;100227.84;4976591;28;20034;-82
2021/07/27 01:40:12;;;;;;;0.10;0.10;;;;;;;17.30;69.47;100221.38;4960013;28;20149;-82
2021/07/27 01:42:41;;;;;;;0.10;0.10;;;;;;;17.27;68.96;100225.31;4942486;28;20129;-81
2021/07/27 01:45:10;;;;;;;0.10;0.10;;;;;;;17.26;68.75;100226.34;4961532;28;20035;-82
2021/07/27 01:47:37;;;;;;;0.20;0.20;;;;;;;17.24;68.88;100222.09;4966023;28;20043;-84
2021/07/27 01:50:03;;;;;;;0.28;0.20;;;;;;;17.26;69.09;100225.50;4929261;29;20098;-81
2021/07/27 01:52:29;;;;;;;0.20;0.20;;;;;;;17.27;69.01;100222.56;4961217;28;20357;-82
2021/07/27 01:54:56;;;;;;;0.10;0.10;;;;;;;17.24;69.39;100220.19;4968843;28;20043;-83
2021/07/27 01:57:25;;;;;;;0.10;0.10;;;;;;;17.23;69.59;100220.38;4911117;29;20035;-82
2021/07/27 01:59:51;;;;;;;0.90;0.57;;;;;;;17.26;69.58;100222.78;4950983;28;20043;-83
2021/07/27 02:02:17;;;;;;;0.28;0.28;;;;;;;17.26;69.78;100225.50;4973623;28;20058;-83
2021/07/27 02:04:43;;;;;;;0.10;0.10;;;;;;;17.26;69.52;100226.34;4939372;28;20047;-82
2021/07/27 02:07:09;;;;;;;0.10;0.10;;;;;;;17.25;69.63;100226.50;4952700;28;20054;-81
2021/07/27 02:09:40;;;;;;;0.20;0.20;;;;;;;17.25;69.57;100227.34;4963136;28;20047;-83
2021/07/27 02:12:12;;;;;;;0.10;0.10;;;;;;;17.25;69.50;100223.78;4951799;28;20126;-84
2021/07/27 02:17:23;;;;;;;0.10;0.10;;;;;;;17.25;70.19;100229.25;4951331;28;20030;-84
2021/07/27 02:19:49;;;;;;;0.10;0.10;;;;;;;17.26;70.02;100225.50;4952317;28;20035;-82
2021/07/27 02:22:17;;;;;;;0.10;0.10;;;;;;;17.28;69.79;100217.97;4965608;28;20078;-82
2021/07/27 02:24:45;;;;;;;0.10;0.10;;;;;;;17.26;70.23;100220.03;4953796;28;20087;-83
2021/07/27 02:27:12;;;;;;;0.10;0.10;;;;;;;17.31;70.54;100229.38;4964926;28;20043;-83
2021/07/27 02:29:38;;;;;;;0.15;0.15;;;;;;;17.39;70.03;100225.75;4920749;28;20069;-84
2021/07/27 02:32:04;;;;;;;0.10;0.10;;;;;;;17.45;70.02;100224.19;4931194;28;21375;-84
2021/07/27 02:34:32;;;;;;;0.10;0.10;;;;;;;17.49;69.24;100226.34;4944550;28;20047;-82
2021/07/27 02:36:59;;;;;;;0.10;0.10;;;;;;;17.54;69.20;100229.38;4923606;28;20158;-82
2021/07/27 02:39:25;;;;;;;0.10;0.10;;;;;;;17.61;69.10;100224.03;4976588;28;20058;-85
2021/07/27 02:41:52;;;;;;;0.10;0.10;;;;;;;17.69;68.46;100225.84;4958331;28;20031;-83
2021/07/27 02:44:18;;;;;;;0.10;0.10;;;;;;;17.72;68.54;100225.50;4943284;29;20625;-82
2021/07/27 02:46:44;;;;;;;0.20;0.20;;;;;;;17.81;68.24;100224.44;4950396;28;20202;-85
2021/07/27 02:49:11;;;;;;;0.20;0.20;;;;;;;17.89;68.36;100229.84;4968389;28;20130;-83
2021/07/27 02:51:37;;;;;;;0.20;0.20;;;;;;;18.04;67.84;100225.25;4956150;29;20536;-86
2021/07/27 02:54:03;;;;;;;0.20;0.20;;;;;;;18.17;67.40;100229.22;4964835;28;20074;-83
2021/07/27 02:56:29;;;;;;;0.20;0.20;;;;;;;18.29;67.42;100227.75;4935845;29;20047;-83
2021/07/27 02:58:56;;;;;;;0.17;0.17;;;;;;;18.36;67.78;100225.94;4914517;29;20087;-84
2021/07/27 03:01:22;;;;;;;0.13;0.13;;;;;;;18.46;67.14;100225.66;4932801;29;20039;-84
2021/07/27 03:03:49;;;;;;;0.20;0.20;;;;;;;18.58;67.04;100226.06;4947681;29;20038;-85
2021/07/27 03:06:18;;;;;;;0.20;0.20;;;;;;;18.73;66.59;100224.19;4951127;29;20036;-84
2021/07/27 03:11:16;;;;;;;0.20;0.20;;;;;;;19.07;65.39;100231.78;4931885;29;20039;-82
2021/07/27 03:13:43;;;;;;;0.17;0.17;;;;;;;19.17;64.88;100228.75;4936160;29;20051;-84
2021/07/27 03:16:17;;;;;;;0.15;0.15;;;;;;;19.32;64.51;100225.97;4953717;29;20063;-84
2021/07/27 03:18:46;;;;;;;0.20;0.20;;;;;;;19.45;64.37;100223.34;4955495;29;20066;-83
2021/07/27 03:21:21;;;;;;;0.20;0.20;;;;;;;19.61;63.82;100227.75;4971062;28;20105;-83
2021/07/27 03:23:47;;;;;;;0.20;0.20;;;;;;;19.81;63.24;100226.03;4965259;28;20051;-84
2021/07/27 03:26:14;;;;;;;0.20;0.20;;;;;;;20.03;62.12;100231.50;4976221;28;20197;-83
2021/07/27 03:28:41;;;;;;;0.20;0.20;;;;;;;20.16;61.89;100226.16;4965055;28;20047;-81
2021/07/27 03:31:09;;;;;;;0.82;0.20;;;;;;;20.35;61.27;100224.59;5124610;23;20201;-85
2021/07/27 03:33:36;;;;;;;0.20;0.20;;;;;;;20.46;60.93;100230.34;4983880;28;20134;-87
2021/07/27 03:36:02;;;;;;;0.20;0.20;;;;;;;20.67;60.98;100228.63;4993785;28;20086;-87
2021/07/27 03:38:30;;;;;;;0.20;0.20;;;;;;;20.83;60.49;100220.03;5196277;23;20162;-84
2021/07/27 03:41:08;;;;;;;0.25;0.25;;;;;;;21.08;59.53;100222.25;4965373;28;20046;-85
2021/07/27 03:43:36;;;;;;;0.30;0.30;;;;;;;21.25;58.60;100215.34;4976416;23;20053;-84
2021/07/27 03:46:09;;;;;;;0.20;0.20;;;;;;;21.43;58.34;100215.63;4973359;28;20097;-87
2021/07/27 03:49:02;;;;;;;0.25;0.20;;;;;;;21.72;58.00;100227.31;5104366;23;20145;-84
2021/07/27 03:51:30;;;;;;;0.20;0.20;;;;;;;21.94;57.56;100227.09;4985479;28;20102;-86
2021/07/27 03:54:09;;;;;;;0.20;0.20;;;;;;;22.10;56.39;100212.94;4974955;28;20035;-88
2021/07/27 03:57:15;;;;;;;0.20;0.20;;;;;;;22.40;54.44;100213.34;5005753;28;20074;-85
2021/07/27 03:59:43;;;;;;;0.30;0.30;;;;;;;22.58;54.52;100215.44;4993403;28;20050;-85
2021/07/27 04:02:15;;;;;;;0.30;0.30;;;;;;;22.86;53.48;100213.22;4975880;28;20130;-87
2021/07/27 04:04:42;;;;;;;0.28;0.28;;;;;;;23.09;52.69;100211.88;5008897;23;20055;-86
2021/07/27 04:07:19;;;;;;;0.20;0.20;;;;;;;23.37;52.61;100216.22;5044555;23;20106;-84
2021/07/27 04:09:49;;;;;;;0.30;0.30;;;;;;;23.50;51.85;100205.06;5146002;23;21044;-85
2021/07/27 04:12:52;;;;;;;0.20;0.20;;;;;;;23.76;51.23;100212.34;4968973;28;20067;-85
2021/07/27 04:18:15;;;;;;;0.28;0.20;;;;;;;24.19;49.66;100203.28;5771962;23;20042;-85
2021/07/27 04:20:44;;;;;;;0.20;0.20;;;;;;;24.47;48.33;100209.19;4983651;28;20079;-83
2021/07/27 04:23:16;;;;;;;0.20;0.20;;;;;;;24.71;46.95;100201.06;5051453;23;20039;-85
2021/07/27 04:25:50;;;;;;;0.20;0.20;;;;;;;24.99;46.39;100203.28;5049719;23;20058;-86
2021/07/27 04:28:22;;;;;;;0.30;0.30;;;;;;;25.26;44.38;100201.88;5160590;23;20078;-85
2021/07/27 04:30:50;;;;;;;0.20;0.20;;;;;;;25.34;43.36;100197.09;4959263;28;20093;-87
2021/07/27 04:33:18;;;;;;;0.25;0.25;;;;;;;25.57;43.36;100199.94;5036411;23;20050;-85
2021/07/27 04:35:47;;;;;;;0.25;0.25;;;;;;;25.84;42.68;100196.78;4924359;29;20028;-88
2021/07/27 04:38:21;;;;;;;0.30;0.30;;;;;;;26.00;42.25;100195.22;4939173;29;20138;-86
2021/07/27 04:40:59;;;;;;;0.30;0.30;;;;;;;26.23;41.38;100188.88;5126532;23;20045;-84
2021/07/27 04:43:38;;;;;;;0.40;0.40;;;;;;;26.43;40.59;100189.34;4994527;28;20053;-85
2021/07/27 04:46:07;;;;;;;0.30;0.30;;;;;;;26.69;37.80;100191.66;4976069;28;20104;-83
2021/07/27 04:52:15;;;;;;;0.30;0.30;;;;;;;27.30;35.17;100177.34;5027574;23;20064;-86
2021/07/27 04:54:51;;;;;;;0.30;0.30;;;;;;;27.64;34.30;100183.81;5028273;23;20158;31
2021/07/27 04:57:44;;;;;;;0.30;0.30;;;;;;;27.83;34.54;100174.19;5360434;23;20056;31
2021/07/27 05:00:19;;;;;;;0.32;0.32;;;;;;;28.04;34.90;100174.50;4916175;29;20072;-85
2021/07/27 05:14:33;;;;;;;0.30;0.30;;;;;;;29.33;31.77;100178.81;6096439;23;20349;31
2021/07/27 05:23:51;;;;;;;0.30;0.30;;;;;;;30.20;29.00;100179.63;6099801;23;20018;31
2021/07/27 05:26:19;;;;;;;0.40;0.40;;;;;;;30.22;29.06;100180.22;5275795;23;20046;-84
2021/07/27 05:28:48;;;;;;;0.40;0.40;;;;;;;30.33;28.90;100173.59;5068146;23;20050;-84
2021/07/27 05:40:32;;;;;;;0.47;0.47;;;;;;;31.45;27.92;100174.13;5565252;23;20853;-87
2021/07/27 06:52:21;;;;;;;0.60;0.60;;;;;;;35.95;20.82;100170.94;5743209;23;20054;-85
2021/07/27 08:45:37;;;;;;;0.80;0.80;;;;;;;41.64;14.60;100126.75;5816355;23;20047;-85
2021/07/27 21:46:34;;;;;;;0.10;0.10;;;;;;;20.67;52.72;99811.00;6095749;23;20129;31
2021/07/27 22:03:36;;;;;;;0.10;0.10;;;;;;;20.50;54.30;99809.75;5699821;23;20057;-86
2021/07/27 22:06:05;;;;;;;0.10;0.10;;;;;;;20.50;55.05;99820.72;5130496;23;20050;-86
2021/07/27 22:08:51;;;;;;;0.10;0.10;;;;;;;20.50;55.29;99815.25;5907008;23;20712;31
2021/07/27 22:11:20;;;;;;;0.10;0.10;;;;;;;20.44;56.09;99817.75;5178133;23;20057;-86
2021/07/27 22:20:31;;;;;;;0.10;0.10;;;;;;;20.26;57.07;99817.53;5368157;23;21081;-85
2021/07/27 22:29:10;;;;;;;0.10;0.10;;;;;;;20.22;58.08;99805.28;5357844;23;20039;-86
2021/07/27 22:31:40;;;;;;;0.10;0.10;;;;;;;20.15;58.50;99809.94;5274141;23;20354;-86
2021/07/27 22:34:08;;;;;;;0.10;0.10;;;;;;;20.14;58.73;99805.47;4994587;28;20037;-87
2021/07/27 22:36:35;;;;;;;0.10;0.10;;;;;;;20.07;58.78;99810.09;4944614;28;20082;-87
2021/07/27 22:39:02;;;;;;;0.10;0.10;;;;;;;20.00;58.97;99804.63;4933300;28;20039;-87
2021/07/27 22:41:40;;;;;;;0.10;0.10;;;;;;;20.01;59.15;99809.06;5386246;23;20021;31
2021/07/27 22:44:09;;;;;;;0.10;0.10;;;;;;;20.00;59.09;99815.63;4914274;29;20048;-87
2021/07/27 22:46:36;;;;;;;0.10;0.10;;;;;;;19.91;59.25;99809.47;4942637;29;20055;-86
2021/07/27 22:52:06;;;;;;;0.10;0.10;;;;;;;19.67;60.53;99821.00;5516851;23;20046;-86
2021/07/27 22:54:38;;;;;;;0.10;0.10;;;;;;;19.72;60.75;99818.50;4970778;28;20105;-88
2021/07/27 22:57:05;;;;;;;;;;;;;;;19.68;60.34;99811.72;4968680;28;20043;-85
2021/07/27 23:03:03;;;;;;;0.10;0.10;;;;;;;19.50;61.10;99826.81;5379813;23;20058;-85
2021/07/27 23:05:32;;;;;;;0.10;0.10;;;;;;;19.56;60.71;99824.28;4940372;29;20039;-86
2021/07/27 23:08:02;;;;;;;0.10;0.10;;;;;;;19.56;60.67;99816.91;4930652;29;20067;-85
2021/07/27 23:13:55;;;;;;;0.10;0.10;;;;;;;19.52;60.80;99813.75;5462720;23;20087;-85
2021/07/27 23:28:38;;;;;;;0.17;0.17;;;;;;;19.35;61.42;99804.19;5148764;23;20050;-86
2021/07/27 23:31:28;;;;;;;0.10;0.10;;;;;;;19.30;61.51;99809.44;4966287;23;20062;-84
2021/07/27 23:33:56;;;;;;;0.10;0.10;;;;;;;19.27;61.77;99805.22;4968160;28;20022;-85
2021/07/27 23:36:23;;;;;;;0.20;0.10;;;;;;;19.25;62.35;99800.97;4948791;28;20065;-84
2021/07/27 23:38:49;;;;;;;0.10;0.10;;;;;;;19.23;61.89;99797.59;4933044;28;20043;-85
2021/07/27 23:41:16;;;;;;;0.10;0.10;;;;;;;19.21;62.11;99794.22;4943594;28;20043;-85
2021/07/27 23:43:43;;;;;;;0.10;0.10;;;;;;;19.21;62.44;99794.22;4946857;29;20111;-83
2021/07/27 23:46:12;;;;;;;0.10;0.10;;;;;;;19.15;62.47;99795.03;4966976;28;20043;-86
2021/07/27 23:48:39;;;;;;;0.10;0.10;;;;;;;19.07;62.58;99792.47;4935933;28;20061;-85
2021/07/27 23:51:08;;;;;;;0.10;0.10;;;;;;;19.06;62.75;99793.53;4961700;28;20066;-86
2021/07/27 23:53:40;;;;;;;0.10;0.10;;;;;;;19.01;63.05;99792.25;4961854;28;20058;-86
2021/07/27 23:56:08;;;;;;;0.10;0.10;;;;;;;19.03;63.11;99798.34;4944137;29;20406;-86
2021/07/27 23:58:35;;;;;;;0.10;0.10;;;;;;;18.98;63.37;99789.91;4935679;28;20039;-85
